Time;durP1;ratioP1;P1;durP2;ratioP2;P2;SDS_P1;SDS_P2;PMS_P1;PMS_P2;Temp;Humidity;BMP_temperature;BMP_pressure;BME280_temperature;BME280_humidity;BME280_pressure;Samples;Min_cycle;Max_cycle;Signal;HPM_P1;HPM_P2
2021/07/12 00:00:40;;;;;;;7.43;2.53;;;;;;;17.97;71.87;93101.75;5052940;28;20103;-87
2021/07/12 00:03:07;;;;;;;2.25;1.30;;;;;;;17.99;72.17;93093.69;5052875;28;20122;-87
2021/07/12 00:05:34;;;;;;;2.83;1.70;;;;;;;17.95;72.17;93093.44;5052796;28;20044;-87
2021/07/12 00:08:01;;;;;;;2.85;1.42;;;;;;;17.95;72.08;93095.25;5052669;28;20053;-88
2021/07/12 00:10:30;;;;;;;2.47;1.60;;;;;;;17.88;72.35;93083.28;5052706;28;20052;-87
2021/07/12 00:12:57;;;;;;;3.10;2.40;;;;;;;17.93;72.70;93094.72;5052729;28;20053;-87
2021/07/12 00:15:27;;;;;;;3.53;1.40;;;;;;;17.93;72.63;93086.94;5052652;28;20048;-88
2021/07/12 00:17:54;;;;;;;1.80;1.33;;;;;;;17.93;72.77;93087.72;5052720;28;20068;-88
2021/07/12 00:20:21;;;;;;;2.55;1.83;;;;;;;17.85;73.24;93096.00;5052360;28;20068;-87
2021/07/12 00:22:50;;;;;;;2.28;1.55;;;;;;;17.68;73.14;93076.25;5052371;28;20045;-87
2021/07/12 00:25:18;;;;;;;3.30;1.80;;;;;;;17.81;73.46;93089.78;5052683;28;20048;-87
2021/07/12 00:27:45;;;;;;;2.38;1.70;;;;;;;17.63;73.24;93079.63;5042690;28;20103;-87
2021/07/12 00:30:14;;;;;;;2.05;1.48;;;;;;;17.68;73.53;93094.41;5032537;28;20100;-87
2021/07/12 00:32:43;;;;;;;3.75;2.47;;;;;;;17.52;74.26;93098.00;5032392;28;20052;-87
2021/07/12 00:35:12;;;;;;;2.53;1.90;;;;;;;17.44;74.54;93100.06;5032415;28;20057;-87
2021/07/12 00:37:39;;;;;;;2.00;1.33;;;;;;;17.29;74.11;93087.03;5032252;28;20057;-87
2021/07/12 00:40:09;;;;;;;2.85;1.35;;;;;;;17.41;74.60;93107.59;5032214;28;21080;-87
2021/07/12 00:42:36;;;;;;;2.58;1.90;;;;;;;17.32;75.29;93102.88;5032134;28;20103;-87
2021/07/12 00:45:05;;;;;;;3.17;2.00;;;;;;;17.28;75.59;93101.06;5032326;28;20068;-87
2021/07/12 00:47:32;;;;;;;2.35;1.80;;;;;;;17.21;75.71;93101.28;5032077;28;20092;-87
2021/07/12 00:50:00;;;;;;;2.50;1.88;;;;;;;17.15;76.06;93092.72;5032180;28;20053;-87
2021/07/12 00:52:27;;;;;;;2.40;1.58;;;;;;;17.17;75.95;93102.84;5031732;28;20529;-87
2021/07/12 00:54:54;;;;;;;1.98;1.58;;;;;;;17.08;77.06;93098.13;5031505;28;20045;-87
2021/07/12 00:57:22;;;;;;;4.97;2.42;;;;;;;17.05;77.14;93095.25;5031988;28;20119;-87
2021/07/12 00:59:50;;;;;;;4.50;2.03;;;;;;;16.95;77.37;93088.94;5031864;28;20057;-87
2021/07/12 01:02:16;;;;;;;2.05;1.55;;;;;;;16.93;77.76;93105.78;5032122;28;20049;-87
2021/07/12 01:04:43;;;;;;;3.30;2.10;;;;;;;16.81;78.18;93096.41;5031670;28;20049;-87
2021/07/12 01:07:13;;;;;;;2.20;1.55;;;;;;;16.75;78.60;93094.81;5031905;28;20057;-88
2021/07/12 01:09:40;;;;;;;4.00;2.53;;;;;;;16.83;78.47;93098.75;5031646;28;20458;-88
2021/07/12 01:12:21;;;;;;;2.35;1.70;;;;;;;16.75;79.45;93101.81;5031637;28;20049;-88
2021/07/12 01:14:56;;;;;;;2.40;1.60;;;;;;;16.75;79.31;93107.78;5015670;28;20057;-88
2021/07/12 01:17:32;;;;;;;2.47;1.80;;;;;;;16.62;79.86;93088.25;5031523;28;20049;-88
2021/07/12 01:20:09;;;;;;;;;;;;;;;16.70;80.25;93102.56;5031877;28;20096;-88
2021/07/12 01:23:02;;;;;;;5.72;1.90;;;;;;;16.67;80.26;93106.44;5031393;28;19925;-88
2021/07/12 01:26:14;;;;;;;2.78;2.08;;;;;;;16.77;79.78;93110.13;5031617;28;20060;-88
2021/07/12 01:29:15;;;;;;;3.58;1.98;;;;;;;16.76;79.57;93106.72;5031325;28;20387;-88
2021/07/12 01:32:04;;;;;;;3.50;2.33;;;;;;;16.76;79.94;93108.56;5031492;28;20050;-88
2021/07/12 01:34:40;;;;;;;2.90;1.77;;;;;;;16.76;79.50;93116.34;5031388;28;20158;-88
2021/07/12 01:37:15;;;;;;;3.03;1.70;;;;;;;16.76;79.62;93109.31;5031337;28;20045;-88
2021/07/12 01:39:46;;;;;;;12.65;1.75;;;;;;;16.72;79.55;93097.91;5030933;28;20049;-88
2021/07/12 01:42:18;;;;;;;2.50;1.40;;;;;;;16.82;79.74;93103.13;5031105;28;20060;-88
2021/07/12 01:44:55;;;;;;;3.25;1.50;;;;;;;16.80;79.73;93097.44;5031268;28;20394;-88
2021/07/12 01:47:31;;;;;;;1.90;1.42;;;;;;;16.77;79.94;93100.53;5030977;28;20061;-88
2021/07/12 01:50:05;;;;;;;1.73;1.05;;;;;;;16.72;79.78;93084.16;5031013;28;20049;-88
2021/07/12 01:52:38;;;;;;;5.80;2.45;;;;;;;16.79;79.04;93092.47;5030975;28;20568;-88
2021/07/12 01:55:12;;;;;;;2.42;1.95;;;;;;;16.77;79.49;93103.13;5031110;28;20045;-88
2021/07/12 01:57:47;;;;;;;3.08;1.67;;;;;;;16.68;80.56;93102.03;5031007;28;20049;-88
2021/07/12 02:00:14;;;;;;;3.40;2.08;;;;;;;16.41;83.20;93090.72;5030904;28;20107;-88
2021/07/12 02:02:44;;;;;;;3.05;2.10;;;;;;;16.44;82.84;93094.63;5030777;28;20801;-87
2021/07/12 02:05:17;;;;;;;3.70;2.03;;;;;;;16.50;82.71;93103.19;5028387;28;20501;-87
2021/07/12 02:07:46;;;;;;;3.05;1.63;;;;;;;16.37;83.33;93086.25;5030969;28;20065;-87
2021/07/12 02:10:14;;;;;;;4.32;2.83;;;;;;;16.43;83.81;93099.00;5030887;28;20462;-87
2021/07/12 02:12:42;;;;;;;4.35;2.95;;;;;;;16.43;84.21;93099.00;5030748;28;20045;-87
2021/07/12 02:15:10;;;;;;;3.30;1.88;;;;;;;16.27;84.97;93090.34;5030635;28;20046;-87
2021/07/12 02:17:39;;;;;;;1.95;1.73;;;;;;;16.26;85.13;93090.59;5030631;28;20100;-87
2021/07/12 02:20:09;;;;;;;1.88;1.48;;;;;;;16.29;84.17;93092.69;5030560;28;20489;-88
2021/07/12 02:22:39;;;;;;;3.92;2.08;;;;;;;16.24;83.51;93085.66;5030580;28;20544;-88
2021/07/12 02:25:10;;;;;;;3.88;2.08;;;;;;;16.41;83.37;93105.47;5030528;28;20604;-88
2021/07/12 02:27:38;;;;;;;8.27;2.97;;;;;;;16.40;82.95;93109.09;5014283;28;20053;-88
2021/07/12 02:30:07;;;;;;;2.03;1.63;;;;;;;16.44;82.47;93107.59;5011040;28;20050;-88
2021/07/12 02:32:36;;;;;;;2.25;1.50;;;;;;;16.34;82.13;93092.72;5010800;28;20058;-88
2021/07/12 02:35:05;;;;;;;2.83;2.13;;;;;;;16.40;82.56;93109.09;5010902;28;20050;-88
2021/07/12 02:37:35;;;;;;;2.55;1.88;;;;;;;16.32;83.02;93105.16;5010798;28;20069;-88
2021/07/12 02:40:05;;;;;;;1.63;1.30;;;;;;;16.28;83.24;93102.28;5010602;28;20449;-88
2021/07/12 02:42:33;;;;;;;2.92;1.70;;;;;;;16.27;83.47;93110.28;5010913;28;20473;-88
2021/07/12 02:45:02;;;;;;;2.90;1.75;;;;;;;16.19;82.91;93095.22;5010929;28;20046;-88
2021/07/12 02:47:28;;;;;;;1.98;1.75;;;;;;;16.29;83.19;93105.63;5011072;28;20076;-88
2021/07/12 02:49:56;;;;;;;4.00;2.13;;;;;;;16.15;84.07;93113.84;5010653;28;20407;-88
2021/07/12 02:52:27;;;;;;;1.83;1.70;;;;;;;16.13;83.76;93104.75;5010539;28;20137;-89
2021/07/12 02:54:59;;;;;;;3.85;1.15;;;;;;;16.07;84.85;93101.34;5010634;28;20508;-88
2021/07/12 02:57:27;;;;;;;2.30;1.58;;;;;;;16.00;85.45;93109.31;5010533;28;20103;-88
2021/07/12 02:59:54;;;;;;;2.53;1.65;;;;;;;15.98;85.19;93113.94;5011007;28;20081;-88
2021/07/12 03:02:21;;;;;;;2.85;1.98;;;;;;;16.00;85.02;93108.50;5010629;28;20050;-88
2021/07/12 03:04:48;;;;;;;3.35;2.25;;;;;;;16.02;85.41;93104.66;5010392;28;20050;-88
2021/07/12 03:07:21;;;;;;;3.25;1.83;;;;;;;15.99;84.96;93105.16;5010451;28;20058;-88
2021/07/12 03:09:53;;;;;;;3.38;2.22;;;;;;;16.02;84.68;93107.25;5010655;28;20054;-88
2021/07/12 03:12:28;;;;;;;3.50;2.53;;;;;;;16.05;85.32;93112.97;5010375;28;20145;-88
2021/07/12 03:15:03;;;;;;;2.40;1.25;;;;;;;15.96;85.95;93116.00;5010610;28;20045;-87
2021/07/12 03:17:31;;;;;;;2.15;1.83;;;;;;;16.06;85.27;93114.53;5012727;28;20050;-88
2021/07/12 03:19:59;;;;;;;2.42;2.03;;;;;;;16.01;85.18;93113.47;5013997;28;20050;-88
2021/07/12 03:22:27;;;;;;;5.35;2.67;;;;;;;16.03;85.33;93115.81;5014034;28;20049;-88
2021/07/12 03:24:57;;;;;;;2.10;1.80;;;;;;;16.01;84.38;93123.81;5013811;28;20050;-88
2021/07/12 03:27:27;;;;;;;2.85;1.88;;;;;;;15.99;84.23;93114.72;5013716;28;20108;-88
2021/07/12 03:29:57;;;;;;;3.10;2.20;;;;;;;16.00;84.13;93118.88;5013800;28;20120;-88
2021/07/12 03:32:27;;;;;;;2.40;1.73;;;;;;;16.04;83.65;93122.53;5014086;28;20073;-88
2021/07/12 03:34:55;;;;;;;2.70;1.85;;;;;;;16.08;83.42;93121.03;5013894;28;20061;-88
2021/07/12 03:37:23;;;;;;;4.22;1.90;;;;;;;16.07;83.29;93113.50;5013878;28;20061;-88
2021/07/12 03:39:50;;;;;;;3.00;1.88;;;;;;;16.02;83.78;93111.66;5013669;28;20100;-88
2021/07/12 03:42:18;;;;;;;3.90;1.73;;;;;;;16.03;83.26;93110.63;5013586;28;20061;-88
2021/07/12 03:44:46;;;;;;;4.03;2.45;;;;;;;16.08;83.41;93118.44;5013334;28;20116;-88
2021/07/12 03:47:26;;;;;;;3.22;2.80;;;;;;;16.08;83.33;93117.66;5013810;28;20128;-89
2021/07/12 03:49:53;;;;;;;4.35;1.95;;;;;;;16.10;83.55;93124.16;5013441;28;20521;-89
2021/07/12 03:52:22;;;;;;;4.30;2.72;;;;;;;16.09;83.93;93120.00;5013942;28;20042;-88
2021/07/12 03:54:49;;;;;;;2.83;2.15;;;;;;;16.08;84.62;93126.22;5013387;28;20166;-89
2021/07/12 03:57:16;;;;;;;3.33;1.98;;;;;;;16.09;84.83;93127.78;5013227;28;20457;-88
2021/07/12 03:59:42;;;;;;;2.92;1.90;;;;;;;16.03;84.80;93121.00;5013389;28;20058;-88
2021/07/12 04:02:09;;;;;;;3.90;1.60;;;;;;;16.19;84.33;93126.31;5013226;28;20061;-88
2021/07/12 04:04:37;;;;;;;1.83;1.63;;;;;;;16.23;84.32;93132.53;5013038;28;20104;-88
2021/07/12 04:07:04;;;;;;;4.15;2.63;;;;;;;16.30;83.51;93133.91;5013083;28;20050;-88
2021/07/12 04:09:31;;;;;;;3.63;2.15;;;;;;;16.38;83.56;93129.31;5013606;28;20074;-88
2021/07/12 04:11:58;;;;;;;2.47;2.22;;;;;;;16.45;84.00;93139.47;5013277;28;20045;-90
2021/07/12 04:14:25;;;;;;;4.15;2.00;;;;;;;16.54;83.36;93130.97;5013239;28;20077;-89
2021/07/12 04:16:52;;;;;;;4.50;2.38;;;;;;;16.61;83.57;93128.16;5012886;28;20053;-89
2021/07/12 04:19:19;;;;;;;2.92;2.22;;;;;;;16.68;83.58;93130.56;5013013;28;20050;-89
2021/07/12 04:21:47;;;;;;;3.22;2.17;;;;;;;16.74;83.64;93137.34;5012830;28;20052;-88
2021/07/12 04:24:14;;;;;;;7.03;2.55;;;;;;;16.84;82.64;93141.81;5012707;28;20420;-89
2021/07/12 04:26:41;;;;;;;3.40;1.95;;;;;;;16.93;82.71;93145.50;5012908;28;20108;-89
2021/07/12 04:29:08;;;;;;;3.55;1.90;;;;;;;17.03;82.17;93144.03;5012780;28;20096;-89
2021/07/12 04:31:34;;;;;;;4.03;1.38;;;;;;;17.12;81.88;93139.91;5012801;28;20497;-90
2021/07/12 04:34:01;;;;;;;2.40;1.70;;;;;;;17.19;81.94;93140.50;5012577;28;20061;-90
2021/07/12 04:36:28;;;;;;;3.08;2.67;;;;;;;17.29;82.03;93149.34;5012466;28;20046;-88
2021/07/12 04:38:59;;;;;;;3.67;2.75;;;;;;;17.41;81.67;93149.91;5012459;28;20053;-88
2021/07/12 04:41:25;;;;;;;4.40;2.13;;;;;;;17.47;83.03;93143.72;5012612;28;20426;-88
2021/07/12 04:43:52;;;;;;;2.33;2.05;;;;;;;17.55;80.97;93142.44;5012345;28;20146;-88
2021/07/12 04:46:19;;;;;;;3.38;2.45;;;;;;;17.62;81.47;93148.19;5012340;28;20490;-89
2021/07/12 04:48:46;;;;;;;4.47;2.20;;;;;;;17.68;81.76;93151.56;5012336;28;20498;-88
2021/07/12 04:51:12;;;;;;;4.45;2.15;;;;;;;17.76;80.82;93150.28;5012146;28;20487;-88
2021/07/12 04:53:39;;;;;;;3.30;2.10;;;;;;;17.79;81.88;93144.59;5012631;28;20089;-88
2021/07/12 04:56:08;;;;;;;3.38;1.90;;;;;;;17.89;82.35;93154.22;5012355;28;20045;-88
2021/07/12 04:58:37;;;;;;;5.75;2.40;;;;;;;17.87;81.60;93154.47;5010615;28;20411;-88
2021/07/12 05:01:05;;;;;;;3.20;2.03;;;;;;;17.98;81.14;93146.72;5012192;28;20485;-88
2021/07/12 05:03:32;;;;;;;6.28;3.13;;;;;;;18.16;81.26;93154.03;5012242;28;20410;-88
2021/07/12 05:06:00;;;;;;;3.33;2.20;;;;;;;18.26;80.08;93157.69;5011885;28;20422;-88
2021/07/12 05:08:27;;;;;;;4.63;3.60;;;;;;;18.34;81.60;93149.41;5011994;28;20057;-88
2021/07/12 05:10:54;;;;;;;8.50;3.40;;;;;;;18.49;78.14;93147.81;5012083;28;20050;-88
2021/07/12 05:13:22;;;;;;;3.58;2.50;;;;;;;18.54;78.36;93148.63;5012089;28;20068;-88
2021/07/12 05:15:49;;;;;;;5.15;3.67;;;;;;;18.75;78.02;93143.38;5011893;28;20636;-88
2021/07/12 05:18:16;;;;;;;10.40;4.05;;;;;;;18.90;77.91;93145.22;5011850;28;20054;-89
2021/07/12 05:20:43;;;;;;;6.97;3.72;;;;;;;18.95;77.83;93132.19;5011995;28;20045;-88
2021/07/12 05:23:10;;;;;;;5.63;3.15;;;;;;;19.14;76.22;93144.66;5011982;28;20092;-88
2021/07/12 05:25:37;;;;;;;8.95;5.05;;;;;;;19.32;74.48;93142.50;5011630;28;20050;-87
2021/07/12 05:28:04;;;;;;;18.08;4.05;;;;;;;19.45;74.28;93144.53;5011571;28;20050;-88
2021/07/12 05:30:33;;;;;;;9.25;4.18;;;;;;;19.63;73.63;93142.41;5011694;28;20042;-88
2021/07/12 05:33:00;;;;;;;6.60;4.07;;;;;;;19.76;72.34;93130.59;5011436;28;20045;-87
2021/07/12 05:35:26;;;;;;;6.43;4.13;;;;;;;19.93;72.34;93137.28;5011671;28;20057;-88
2021/07/12 05:37:53;;;;;;;16.08;5.90;;;;;;;20.11;74.38;93141.13;5011514;28;20490;-88
2021/07/12 05:40:20;;;;;;;7.90;4.10;;;;;;;19.94;75.10;93144.84;5011035;28;20045;-87
2021/07/12 05:42:47;;;;;;;8.65;3.63;;;;;;;19.98;75.02;93134.69;5011376;28;20057;-88
2021/07/12 05:45:14;;;;;;;6.32;4.55;;;;;;;20.11;74.35;93139.31;5011394;28;20057;-88
2021/07/12 05:47:42;;;;;;;7.30;4.03;;;;;;;20.26;72.40;93140.22;5011589;28;20057;-88
2021/07/12 05:50:11;;;;;;;6.32;3.92;;;;;;;20.55;72.90;93137.69;5011488;28;20116;-88
2021/07/12 05:52:38;;;;;;;8.60;3.95;;;;;;;20.75;71.45;93143.78;5011724;28;20057;-88
2021/07/12 05:55:06;;;;;;;7.80;4.72;;;;;;;20.67;71.84;93141.75;5011140;28;20042;-88
2021/07/12 05:57:32;;;;;;;3.83;3.33;;;;;;;20.77;71.56;93144.28;5011353;28;20050;-87
2021/07/12 05:59:59;;;;;;;6.93;3.22;;;;;;;20.99;70.59;93144.88;5011055;28;20069;-88
2021/07/12 06:02:26;;;;;;;6.93;4.57;;;;;;;21.01;71.03;93127.13;5011487;28;20046;-87
2021/07/12 06:04:54;;;;;;;8.70;5.45;;;;;;;21.14;70.54;93144.75;5010938;28;20050;-88
2021/07/12 06:07:22;;;;;;;7.70;4.65;;;;;;;21.48;69.15;93140.47;5011184;28;20434;-87
2021/07/12 06:09:48;;;;;;;9.88;4.75;;;;;;;21.85;66.91;93148.66;5011137;28;20144;-88
2021/07/12 06:12:15;;;;;;;8.02;3.67;;;;;;;22.02;65.83;93148.16;5011104;28;20104;-87
2021/07/12 06:14:42;;;;;;;8.23;4.57;;;;;;;22.22;64.99;93154.94;5010840;28;20061;-88
2021/07/12 06:17:09;;;;;;;6.45;2.85;;;;;;;22.46;64.24;93148.84;5010933;28;20054;-88
2021/07/12 06:19:36;;;;;;;4.30;2.67;;;;;;;22.73;62.58;93146.63;5010966;28;20052;-87
2021/07/12 06:22:04;;;;;;;7.05;3.30;;;;;;;22.85;61.33;93138.31;5010830;28;20088;-87
2021/07/12 06:24:31;;;;;;;6.22;3.17;;;;;;;22.79;61.88;93146.25;5010878;28;20054;-87
2021/07/12 06:26:58;;;;;;;3.80;2.85;;;;;;;23.17;61.23;93150.59;5009170;28;20053;-87
2021/07/12 06:29:25;;;;;;;7.38;3.63;;;;;;;23.57;58.42;93149.34;5010910;28;20060;-88
2021/07/12 06:31:53;;;;;;;4.72;2.22;;;;;;;24.00;57.14;93142.97;5011123;28;20054;-90
2021/07/12 06:34:21;;;;;;;5.20;3.25;;;;;;;24.50;55.22;93151.88;5010830;28;20495;-89
2021/07/12 06:36:47;;;;;;;3.67;2.75;;;;;;;24.83;53.64;93154.25;5010867;28;20096;-89
2021/07/12 06:39:16;;;;;;;9.77;4.35;;;;;;;25.20;52.88;93152.28;5010768;28;20050;-88
2021/07/12 06:41:43;;;;;;;6.97;3.08;;;;;;;25.33;52.25;93147.97;5010642;28;20498;-88
2021/07/12 06:44:10;;;;;;;5.25;2.22;;;;;;;25.19;52.14;93142.06;5010700;28;20050;-88
2021/07/12 06:46:37;;;;;;;4.43;2.47;;;;;;;25.68;49.90;93149.22;5010809;28;20061;-88
2021/07/12 06:49:04;;;;;;;6.93;3.20;;;;;;;26.12;49.85;93144.78;5010707;28;20640;-88
2021/07/12 06:51:31;;;;;;;10.52;3.47;;;;;;;26.47;49.37;93140.63;5011775;28;20045;-89
2021/07/12 06:54:00;;;;;;;9.48;3.03;;;;;;;26.36;48.20;93138.28;5014499;28;20542;-88
2021/07/12 06:56:29;;;;;;;6.90;3.42;;;;;;;26.09;48.73;93141.97;5014361;28;20384;-88
2021/07/12 06:58:56;;;;;;;3.08;2.40;;;;;;;26.66;48.17;93138.41;5014383;28;20062;-87
2021/07/12 07:01:23;;;;;;;4.72;2.67;;;;;;;26.88;47.36;93143.81;5014376;28;20062;-87
2021/07/12 07:03:50;;;;;;;6.28;3.42;;;;;;;26.88;47.36;93143.81;5014580;28;20054;-88
2021/07/12 07:06:17;;;;;;;5.82;3.05;;;;;;;27.66;45.98;93139.34;5014119;28;20065;-87
2021/07/12 07:08:43;;;;;;;4.45;2.72;;;;;;;27.93;45.47;93136.53;5014140;28;20054;-88
2021/07/12 07:11:10;;;;;;;3.97;2.42;;;;;;;28.22;44.03;93140.97;5014540;28;20041;-87
2021/07/12 07:13:39;;;;;;;5.95;2.88;;;;;;;27.92;43.71;93135.78;5014324;28;20073;-88
2021/07/12 07:16:06;;;;;;;4.75;2.92;;;;;;;28.01;44.02;93136.47;5014270;28;20112;-87
2021/07/12 07:18:33;;;;;;;6.30;2.95;;;;;;;28.40;42.58;93140.84;5014250;28;20049;-88
2021/07/12 07:21:00;;;;;;;10.43;3.95;;;;;;;28.71;43.05;93133.59;5014120;28;20050;-88
2021/07/12 07:23:27;;;;;;;6.28;3.10;;;;;;;29.13;41.79;93135.34;5013876;28;20050;-88
2021/07/12 07:25:54;;;;;;;26.13;3.22;;;;;;;29.45;41.20;93136.38;5013723;28;20050;-88
2021/07/12 07:28:21;;;;;;;5.10;2.80;;;;;;;29.71;40.84;93135.25;5014005;28;20553;-87
2021/07/12 07:30:50;;;;;;;6.00;2.20;;;;;;;30.03;40.12;93131.25;5014021;28;20046;-84
2021/07/12 07:33:16;;;;;;;7.88;3.17;;;;;;;30.21;40.10;93140.50;5013759;28;20054;-88
2021/07/12 07:35:43;;;;;;;6.03;2.15;;;;;;;30.27;39.78;93133.84;5014241;28;20096;-87
2021/07/12 07:38:10;;;;;;;11.55;2.97;;;;;;;30.37;39.36;93132.59;5013682;28;20058;-89
2021/07/12 07:40:37;;;;;;;6.68;2.20;;;;;;;30.39;39.76;93126.97;5014181;28;20391;-87
2021/07/12 07:43:06;;;;;;;8.27;2.40;;;;;;;30.57;40.10;93129.31;5013742;28;20046;-87
2021/07/12 07:45:33;;;;;;;3.67;2.60;;;;;;;30.86;39.50;93122.13;5013485;28;20065;-88
2021/07/12 07:48:01;;;;;;;8.23;2.40;;;;;;;31.07;38.24;93122.63;5013540;28;20101;-87
2021/07/12 07:50:28;;;;;;;3.75;2.35;;;;;;;31.12;39.74;93126.16;5013387;28;20076;-88
2021/07/12 07:52:55;;;;;;;3.55;2.13;;;;;;;31.27;38.52;93114.78;5013576;28;20042;-88
2021/07/12 07:55:22;;;;;;;2.88;1.60;;;;;;;31.44;38.27;93126.97;5013436;28;20099;-88
2021/07/12 07:57:49;;;;;;;7.20;3.03;;;;;;;30.74;39.30;93107.06;5013496;28;20524;-86
2021/07/12 08:00:18;;;;;;;3.10;1.95;;;;;;;31.05;39.22;93119.56;5013368;28;20469;-85
2021/07/12 08:02:45;;;;;;;2.67;1.52;;;;;;;30.32;40.43;93132.84;5012697;28;20045;-85
2021/07/12 08:05:14;;;;;;;2.55;1.70;;;;;;;30.14;42.59;93114.56;5013053;28;20513;-88
2021/07/12 08:07:41;;;;;;;2.90;1.75;;;;;;;30.36;41.29;93120.44;5013135;28;20514;-85
2021/07/12 08:10:10;;;;;;;2.60;1.77;;;;;;;30.42;40.59;93123.66;5013511;28;20050;-85
2021/07/12 08:12:37;;;;;;;3.42;1.35;;;;;;;30.52;41.55;93120.50;5013114;28;20049;-87
2021/07/12 08:15:05;;;;;;;3.35;1.85;;;;;;;30.61;39.57;93114.28;5012985;28;20054;-86
2021/07/12 08:17:32;;;;;;;4.32;2.03;;;;;;;30.65;39.71;93115.91;5012935;28;20050;-86
2021/07/12 08:19:59;;;;;;;3.45;2.17;;;;;;;30.68;39.79;93111.78;5012880;28;20497;-87
2021/07/12 08:22:27;;;;;;;3.20;1.70;;;;;;;31.29;39.29;93112.56;5012952;28;20057;-87
2021/07/12 08:24:54;;;;;;;2.28;1.38;;;;;;;31.38;35.10;93108.97;5012991;28;20072;-87
2021/07/12 08:27:20;;;;;;;2.28;1.90;;;;;;;31.42;35.93;93110.59;5011803;28;20053;-87
2021/07/12 08:29:47;;;;;;;2.65;1.33;;;;;;;31.49;35.13;93120.59;5012131;28;20050;-86
2021/07/12 08:32:14;;;;;;;1.88;1.33;;;;;;;31.70;33.05;93114.25;5012538;28;20050;-84
2021/07/12 08:34:42;;;;;;;5.00;1.77;;;;;;;30.56;33.92;93117.94;5012658;28;20100;-85
2021/07/12 08:37:09;;;;;;;2.28;1.42;;;;;;;31.01;35.20;93117.94;5012857;28;20050;-88
2021/07/12 08:39:37;;;;;;;3.35;0.93;;;;;;;31.44;31.99;93112.91;5013106;28;20056;-88
2021/07/12 08:42:05;;;;;;;1.75;1.00;;;;;;;31.37;31.29;93113.50;5012617;28;20505;-86
2021/07/12 08:44:32;;;;;;;1.88;1.08;;;;;;;31.11;30.51;93112.13;5012505;28;20050;-84
2021/07/12 08:46:59;;;;;;;1.77;1.38;;;;;;;30.99;32.85;93114.84;5012639;28;20060;-86
2021/07/12 08:49:27;;;;;;;2.50;1.40;;;;;;;31.20;32.73;93110.06;5012335;28;20058;-86
2021/07/12 08:51:54;;;;;;;1.92;1.00;;;;;;;31.63;33.37;93111.41;5012300;28;20092;-89
2021/07/12 08:54:21;;;;;;;1.73;1.17;;;;;;;31.16;33.09;93111.09;5012389;28;20046;-85
2021/07/12 08:56:49;;;;;;;2.33;1.55;;;;;;;31.26;33.11;93115.13;5012425;28;20053;-87
2021/07/12 08:59:30;;;;;;;2.92;1.52;;;;;;;30.75;31.32;93109.38;5012195;28;20128;-83
2021/07/12 09:02:06;;;;;;;5.57;1.20;;;;;;;30.80;31.37;93116.31;5012155;28;20058;-86
2021/07/12 09:04:32;;;;;;;;;;;;;;;29.91;31.92;93124.88;4999015;28;20046;-81
2021/07/12 09:07:01;;;;;;;2.42;1.27;;;;;;;30.07;31.96;93119.66;5011958;28;19921;-87
2021/07/12 09:09:28;;;;;;;4.50;2.05;;;;;;;30.69;31.01;93118.69;5012069;28;20050;-87
2021/07/12 09:11:56;;;;;;;1.52;0.75;;;;;;;31.25;30.70;93109.06;5012219;28;20593;-86
2021/07/12 09:14:25;;;;;;;1.80;1.15;;;;;;;30.77;30.55;93114.31;5011164;28;20046;-85
2021/07/12 09:16:54;;;;;;;2.67;1.50;;;;;;;30.18;30.34;93093.50;5014329;28;20046;-87
2021/07/12 09:19:27;;;;;;;2.35;1.15;;;;;;;30.48;31.13;93110.91;5031613;28;20092;-87
2021/07/12 09:21:58;;;;;;;1.70;1.13;;;;;;;29.92;28.44;93110.53;5031749;28;20454;-84
2021/07/12 09:24:33;;;;;;;1.65;1.10;;;;;;;30.45;30.42;93111.59;5031849;28;20090;-87
2021/07/12 09:27:06;;;;;;;;;;;;;;;30.76;29.71;93112.78;5031909;28;20093;-85
2021/07/12 09:29:35;;;;;;;3.45;1.40;;;;;;;31.12;29.49;93112.91;5031587;28;19962;-87
2021/07/12 09:32:05;;;;;;;3.65;1.55;;;;;;;30.75;29.68;93121.84;5031447;28;20053;-86
2021/07/12 09:34:32;;;;;;;2.22;1.30;;;;;;;30.80;30.15;93097.75;5031163;28;20136;-85
2021/07/12 09:36:59;;;;;;;2.30;1.67;;;;;;;31.53;29.70;93108.19;5031495;28;20057;-85
2021/07/12 09:39:37;;;;;;;2.28;1.10;;;;;;;31.43;28.10;93111.38;5031310;28;20410;-86
2021/07/12 09:42:09;;;;;;;3.40;1.52;;;;;;;31.38;29.40;93119.59;5031389;28;20064;-86
2021/07/12 09:44:40;;;;;;;2.67;1.25;;;;;;;32.06;28.95;93106.28;5031176;28;20088;-85
2021/07/12 09:47:11;;;;;;;2.08;1.00;;;;;;;32.10;27.86;93107.88;5031026;28;20050;-89
2021/07/12 09:49:38;;;;;;;3.25;1.60;;;;;;;32.69;27.42;93111.63;5031034;28;20092;-86
2021/07/12 09:52:08;;;;;;;3.08;1.05;;;;;;;33.15;26.78;93108.25;5031224;28;20057;-87
2021/07/12 09:54:38;;;;;;;1.27;0.73;;;;;;;33.47;26.70;93107.97;5031080;28;20128;-86
2021/07/12 09:57:09;;;;;;;1.83;0.95;;;;;;;33.00;28.21;93112.56;5030948;28;20057;-87
2021/07/12 09:59:36;;;;;;;9.98;2.78;;;;;;;32.86;26.94;93115.75;5030887;28;20063;-85
2021/07/12 10:02:05;;;;;;;1.60;1.00;;;;;;;32.20;27.79;93103.13;5030979;28;20053;-82
2021/07/12 10:04:32;;;;;;;2.67;1.55;;;;;;;32.39;27.78;93103.13;5030871;28;20490;-87
2021/07/12 10:07:01;;;;;;;2.30;1.30;;;;;;;32.49;27.27;93109.00;5030713;28;20046;-84
2021/07/12 10:09:28;;;;;;;1.50;0.90;;;;;;;32.06;28.27;93117.66;5024885;28;20069;-87
2021/07/12 10:11:56;;;;;;;10.38;1.52;;;;;;;32.60;27.40;93109.19;5020784;28;20046;-87
2021/07/12 10:14:25;;;;;;;2.13;1.20;;;;;;;32.92;26.78;93114.31;5015677;28;20050;-83
2021/07/12 10:16:52;;;;;;;2.50;1.10;;;;;;;32.78;28.23;93104.97;5018734;28;20049;-85
2021/07/12 10:19:20;;;;;;;2.47;1.80;;;;;;;32.64;28.26;93105.47;5021440;28;20126;-86
2021/07/12 10:21:49;;;;;;;2.65;1.20;;;;;;;32.75;28.00;93099.56;5019111;28;20053;-86
2021/07/12 10:24:18;;;;;;;2.80;1.35;;;;;;;33.05;27.45;93101.63;5018416;28;20498;-83
2021/07/12 10:26:50;;;;;;;1.70;1.25;;;;;;;32.37;28.30;93105.38;5022834;28;20045;-87
2021/07/12 10:29:19;;;;;;;2.38;1.30;;;;;;;32.23;28.32;93103.19;5024168;28;20478;-85
2021/07/12 10:32:02;;;;;;;2.80;1.45;;;;;;;32.37;28.91;93096.59;5025315;28;20115;-85
2021/07/12 10:34:32;;;;;;;2.88;1.30;;;;;;;33.06;29.27;93100.50;5024991;28;20456;-86
2021/07/12 10:37:02;;;;;;;2.75;1.83;;;;;;;33.44;27.83;93085.50;5019853;28;20104;-87
2021/07/12 10:40:11;;;;;;;7.70;1.30;;;;;;;32.35;27.36;93106.84;5028167;28;20493;-81
2021/07/12 10:42:55;;;;;;;2.58;1.30;;;;;;;32.08;28.06;93091.50;5014806;28;20042;-85
2021/07/12 10:45:43;;;;;;;2.22;1.38;;;;;;;31.97;28.44;93086.00;5030628;28;20049;-85
2021/07/12 10:48:14;;;;;;;2.90;1.60;;;;;;;32.15;28.05;93088.22;5024855;28;20071;-86
2021/07/12 10:50:47;;;;;;;1.85;0.93;;;;;;;32.63;27.77;93090.66;5033959;28;20045;-86
2021/07/12 10:53:42;;;;;;;2.50;1.25;;;;;;;32.88;26.65;93082.34;5034378;28;20528;-83
2021/07/12 10:56:16;;;;;;;1.75;1.20;;;;;;;33.36;26.47;93078.53;5029443;28;20079;-85
2021/07/12 10:58:48;;;;;;;2.00;1.25;;;;;;;33.77;25.18;93085.97;5014630;28;20054;-87
2021/07/12 11:01:43;;;;;;;2.40;1.25;;;;;;;33.49;25.59;93086.31;5014728;28;20050;-85
2021/07/12 11:04:47;;;;;;;4.80;1.17;;;;;;;32.48;26.93;93081.66;5014401;28;20481;-85
2021/07/12 11:07:17;;;;;;;2.28;1.55;;;;;;;32.78;26.96;93081.03;5014301;28;20406;-85
2021/07/12 11:09:46;;;;;;;4.72;1.25;;;;;;;33.35;25.52;93084.22;5014470;28;20513;-86
2021/07/12 11:12:38;;;;;;;2.00;1.02;;;;;;;33.21;24.73;93082.13;5014298;28;20721;-84
2021/07/12 11:15:13;;;;;;;6.85;1.42;;;;;;;33.32;25.61;93083.03;5014180;28;20053;-87
2021/07/12 11:18:04;;;;;;;3.05;1.33;;;;;;;33.05;26.58;93077.69;5014351;28;20104;-85
2021/07/12 11:20:58;;;;;;;1.50;1.15;;;;;;;33.36;25.17;93081.19;5013998;28;20062;-85
2021/07/12 11:23:44;;;;;;;2.78;1.42;;;;;;;33.13;25.02;93075.91;5034042;28;20049;-80
2021/07/12 11:26:51;;;;;;;2.60;1.42;;;;;;;33.12;26.48;93077.78;5033701;28;20140;-86
2021/07/12 11:29:26;;;;;;;2.55;1.58;;;;;;;33.43;25.06;93081.31;5033319;28;20050;-84
2021/07/12 11:31:55;;;;;;;1.45;0.88;;;;;;;33.78;24.63;93071.50;5033559;28;20049;-87
2021/07/12 11:34:24;;;;;;;1.98;1.30;;;;;;;34.28;23.41;93070.59;5014914;28;20049;-86
2021/07/12 11:36:54;;;;;;;2.60;1.15;;;;;;;-147.90;100.00;59510.75;5013028;28;20053;-85
2021/07/12 11:39:24;;;;;;;1.98;1.27;;;;;;;-147.90;100.00;59510.75;5013714;28;20104;-85
2021/07/12 11:41:51;;;;;;;1.35;0.85;;;;;;;-147.90;100.00;59510.75;5013590;28;20100;-86
2021/07/12 11:44:19;;;;;;;2.88;1.10;;;;;;;-147.90;100.00;59510.75;5013852;28;20050;-84
2021/07/12 11:46:46;;;;;;;1.80;1.08;;;;;;;-147.90;100.00;59510.75;5013563;28;20104;-84